sensor_id;sensor_type;location;lat;lon;timestamp;P1;durP1;ratioP1;P2;durP2;ratioP2
6852;SDS011;3465;42.144;24.722;2022-10-04T00:09:33;4.73;;;1.73;;
6852;SDS011;3465;42.144;24.722;2022-10-04T00:12:06;18.03;;;3.10;;
6852;SDS011;3465;42.144;24.722;2022-10-04T00:15:05;9.63;;;3.17;;
6852;SDS011;3465;42.144;24.722;2022-10-04T00:17:45;7.00;;;2.93;;
6852;SDS011;3465;42.144;24.722;2022-10-04T00:26:00;4.67;;;2.30;;
6852;SDS011;3465;42.144;24.722;2022-10-04T00:31:15;3.00;;;1.77;;
6852;SDS011;3465;42.144;24.722;2022-10-04T00:41:56;4.30;;;2.00;;
6852;SDS011;3465;42.144;24.722;2022-10-04T00:44:46;2.53;;;1.67;;
6852;SDS011;3465;42.144;24.722;2022-10-04T00:49:50;5.50;;;1.60;;
6852;SDS011;3465;42.144;24.722;2022-10-04T00:52:22;6.20;;;1.80;;
6852;SDS011;3465;42.144;24.722;2022-10-04T00:54:54;3.83;;;1.80;;
6852;SDS011;3465;42.144;24.722;2022-10-04T00:57:28;2.73;;;1.77;;
6852;SDS011;3465;42.144;24.722;2022-10-04T01:00:15;4.90;;;1.60;;
6852;SDS011;3465;42.144;24.722;2022-10-04T01:05:14;4.53;;;1.83;;
6852;SDS011;3465;42.144;24.722;2022-10-04T01:07:45;2.80;;;1.70;;
6852;SDS011;3465;42.144;24.722;2022-10-04T01:21:06;5.00;;;2.10;;
6852;SDS011;3465;42.144;24.722;2022-10-04T01:29:01;3.23;;;1.90;;
6852;SDS011;3465;42.144;24.722;2022-10-04T01:31:33;3.80;;;1.80;;
6852;SDS011;3465;42.144;24.722;2022-10-04T01:34:00;7.00;;;2.00;;
6852;SDS011;3465;42.144;24.722;2022-10-04T01:36:28;1.83;;;1.70;;
6852;SDS011;3465;42.144;24.722;2022-10-04T01:38:53;2.53;;;1.67;;
6852;SDS011;3465;42.144;24.722;2022-10-04T01:41:24;4.60;;;1.83;;
6852;SDS011;3465;42.144;24.722;2022-10-04T01:44:05;5.23;;;1.80;;
6852;SDS011;3465;42.144;24.722;2022-10-04T01:46:35;3.77;;;1.80;;
6852;SDS011;3465;42.144;24.722;2022-10-04T01:49:03;2.40;;;1.60;;
6852;SDS011;3465;42.144;24.722;2022-10-04T01:51:35;6.93;;;2.13;;
6852;SDS011;3465;42.144;24.722;2022-10-04T01:54:11;3.07;;;1.67;;
6852;SDS011;3465;42.144;24.722;2022-10-04T01:56:47;3.27;;;1.80;;
6852;SDS011;3465;42.144;24.722;2022-10-04T01:59:50;9.93;;;2.13;;
6852;SDS011;3465;42.144;24.722;2022-10-04T02:02:31;4.53;;;1.77;;
6852;SDS011;3465;42.144;24.722;2022-10-04T02:05:01;5.93;;;2.03;;
6852;SDS011;3465;42.144;24.722;2022-10-04T02:07:30;7.40;;;1.97;;
6852;SDS011;3465;42.144;24.722;2022-10-04T02:09:58;3.23;;;1.80;;
6852;SDS011;3465;42.144;24.722;2022-10-04T02:12:29;4.93;;;1.73;;
6852;SDS011;3465;42.144;24.722;2022-10-04T02:14:55;7.30;;;2.20;;
6852;SDS011;3465;42.144;24.722;2022-10-04T02:17:27;3.37;;;1.77;;
6852;SDS011;3465;42.144;24.722;2022-10-04T02:19:55;4.93;;;1.70;;
6852;SDS011;3465;42.144;24.722;2022-10-04T02:22:26;3.10;;;1.97;;
6852;SDS011;3465;42.144;24.722;2022-10-04T02:24:54;5.50;;;2.00;;
6852;SDS011;3465;42.144;24.722;2022-10-04T02:27:25;3.43;;;1.90;;
6852;SDS011;3465;42.144;24.722;2022-10-04T02:29:58;2.53;;;1.90;;
6852;SDS011;3465;42.144;24.722;2022-10-04T02:32:25;2.37;;;1.80;;
6852;SDS011;3465;42.144;24.722;2022-10-04T02:35:09;2.50;;;1.90;;
6852;SDS011;3465;42.144;24.722;2022-10-04T02:37:35;4.30;;;1.80;;
6852;SDS011;3465;42.144;24.722;2022-10-04T02:40:03;3.27;;;1.80;;
6852;SDS011;3465;42.144;24.722;2022-10-04T02:42:37;3.67;;;2.00;;
6852;SDS011;3465;42.144;24.722;2022-10-04T02:45:32;4.80;;;2.00;;
6852;SDS011;3465;42.144;24.722;2022-10-04T02:48:03;3.80;;;2.00;;
6852;SDS011;3465;42.144;24.722;2022-10-04T02:50:38;3.47;;;2.07;;
6852;SDS011;3465;42.144;24.722;2022-10-04T02:55:51;2.27;;;2.00;;
6852;SDS011;3465;42.144;24.722;2022-10-04T02:58:18;2.97;;;1.90;;
6852;SDS011;3465;42.144;24.722;2022-10-04T03:00:51;4.80;;;2.20;;
6852;SDS011;3465;42.144;24.722;2022-10-04T03:03:24;3.27;;;2.00;;
6852;SDS011;3465;42.144;24.722;2022-10-04T03:06:09;2.90;;;2.00;;
6852;SDS011;3465;42.144;24.722;2022-10-04T03:11:06;2.73;;;1.80;;
6852;SDS011;3465;42.144;24.722;2022-10-04T03:13:33;3.67;;;2.37;;
6852;SDS011;3465;42.144;24.722;2022-10-04T03:16:01;6.43;;;2.53;;
6852;SDS011;3465;42.144;24.722;2022-10-04T03:18:26;6.97;;;2.07;;
6852;SDS011;3465;42.144;24.722;2022-10-04T03:20:55;3.50;;;2.10;;
6852;SDS011;3465;42.144;24.722;2022-10-04T03:23:21;5.03;;;1.97;;
6852;SDS011;3465;42.144;24.722;2022-10-04T03:25:52;5.03;;;2.33;;
6852;SDS011;3465;42.144;24.722;2022-10-04T03:28:24;4.73;;;2.37;;
6852;SDS011;3465;42.144;24.722;2022-10-04T03:30:53;2.87;;;1.90;;
6852;SDS011;3465;42.144;24.722;2022-10-04T03:33:21;4.10;;;1.90;;
6852;SDS011;3465;42.144;24.722;2022-10-04T03:35:49;4.30;;;2.00;;
6852;SDS011;3465;42.144;24.722;2022-10-04T03:38:18;4.57;;;1.93;;
6852;SDS011;3465;42.144;24.722;2022-10-04T03:40:46;5.13;;;2.13;;
6852;SDS011;3465;42.144;24.722;2022-10-04T03:43:21;3.80;;;2.03;;
6852;SDS011;3465;42.144;24.722;2022-10-04T03:45:58;9.00;;;2.03;;
6852;SDS011;3465;42.144;24.722;2022-10-04T03:48:31;4.70;;;1.87;;
6852;SDS011;3465;42.144;24.722;2022-10-04T03:50:59;6.07;;;2.30;;
6852;SDS011;3465;42.144;24.722;2022-10-04T03:55:57;3.30;;;1.90;;
6852;SDS011;3465;42.144;24.722;2022-10-04T03:58:23;4.10;;;2.23;;
6852;SDS011;3465;42.144;24.722;2022-10-04T04:01:03;3.60;;;2.37;;
6852;SDS011;3465;42.144;24.722;2022-10-04T04:04:19;4.00;;;2.20;;
6852;SDS011;3465;42.144;24.722;2022-10-04T04:06:32;3.00;;;2.30;;
6852;SDS011;3465;42.144;24.722;2022-10-04T04:09:24;3.07;;;2.13;;
6852;SDS011;3465;42.144;24.722;2022-10-04T04:12:21;4.43;;;2.00;;
6852;SDS011;3465;42.144;24.722;2022-10-04T04:14:59;8.80;;;2.20;;
6852;SDS011;3465;42.144;24.722;2022-10-04T04:19:53;6.10;;;2.63;;
6852;SDS011;3465;42.144;24.722;2022-10-04T04:22:23;3.00;;;1.90;;
6852;SDS011;3465;42.144;24.722;2022-10-04T04:24:57;2.37;;;1.87;;
6852;SDS011;3465;42.144;24.722;2022-10-04T04:27:26;6.70;;;2.03;;
6852;SDS011;3465;42.144;24.722;2022-10-04T04:29:54;5.37;;;2.47;;
6852;SDS011;3465;42.144;24.722;2022-10-04T04:32:24;3.63;;;2.20;;
6852;SDS011;3465;42.144;24.722;2022-10-04T04:34:59;5.50;;;2.20;;
6852;SDS011;3465;42.144;24.722;2022-10-04T04:37:32;2.80;;;1.83;;
6852;SDS011;3465;42.144;24.722;2022-10-04T04:40:09;5.30;;;2.40;;
6852;SDS011;3465;42.144;24.722;2022-10-04T04:42:45;2.50;;;1.83;;
6852;SDS011;3465;42.144;24.722;2022-10-04T04:45:17;2.30;;;1.77;;
6852;SDS011;3465;42.144;24.722;2022-10-04T04:47:47;5.67;;;2.10;;
6852;SDS011;3465;42.144;24.722;2022-10-04T04:50:16;6.60;;;2.03;;
6852;SDS011;3465;42.144;24.722;2022-10-04T04:52:47;3.93;;;2.10;;
6852;SDS011;3465;42.144;24.722;2022-10-04T04:55:17;14.97;;;2.23;;
6852;SDS011;3465;42.144;24.722;2022-10-04T04:57:50;4.97;;;2.20;;
6852;SDS011;3465;42.144;24.722;2022-10-04T05:00:21;7.13;;;2.10;;
6852;SDS011;3465;42.144;24.722;2022-10-04T05:02:53;3.60;;;1.80;;
6852;SDS011;3465;42.144;24.722;2022-10-04T05:10:32;3.57;;;2.03;;
6852;SDS011;3465;42.144;24.722;2022-10-04T05:12:58;6.60;;;2.00;;
6852;SDS011;3465;42.144;24.722;2022-10-04T05:15:26;4.13;;;1.90;;
6852;SDS011;3465;42.144;24.722;2022-10-04T05:17:56;3.58;;;1.83;;
6852;SDS011;3465;42.144;24.722;2022-10-04T05:20:21;2.03;;;1.50;;
6852;SDS011;3465;42.144;24.722;2022-10-04T05:22:47;5.03;;;1.67;;
6852;SDS011;3465;42.144;24.722;2022-10-04T05:27:58;2.58;;;1.92;;
6852;SDS011;3465;42.144;24.722;2022-10-04T05:30:40;4.70;;;1.80;;
6852;SDS011;3465;42.144;24.722;2022-10-04T05:33:13;3.53;;;1.45;;
6852;SDS011;3465;42.144;24.722;2022-10-04T05:41:12;4.75;;;1.85;;
6852;SDS011;3465;42.144;24.722;2022-10-04T05:43:45;3.03;;;1.50;;
6852;SDS011;3465;42.144;24.722;2022-10-04T05:49:02;3.65;;;1.63;;
6852;SDS011;3465;42.144;24.722;2022-10-04T05:51:33;2.47;;;1.50;;
6852;SDS011;3465;42.144;24.722;2022-10-04T05:54:11;3.03;;;1.60;;
6852;SDS011;3465;42.144;24.722;2022-10-04T06:05:12;6.82;;;2.17;;
6852;SDS011;3465;42.144;24.722;2022-10-04T06:16:55;2.78;;;1.80;;
6852;SDS011;3465;42.144;24.722;2022-10-04T06:19:20;6.60;;;1.90;;
6852;SDS011;3465;42.144;24.722;2022-10-04T06:24:17;5.32;;;1.92;;
6852;SDS011;3465;42.144;24.722;2022-10-04T06:26:47;7.85;;;2.20;;
6852;SDS011;3465;42.144;24.722;2022-10-04T06:29:19;3.90;;;1.90;;
6852;SDS011;3465;42.144;24.722;2022-10-04T06:34:43;2.85;;;1.80;;
6852;SDS011;3465;42.144;24.722;2022-10-04T06:54:24;4.45;;;1.77;;
6852;SDS011;3465;42.144;24.722;2022-10-04T07:05:38;5.60;;;1.80;;
6852;SDS011;3465;42.144;24.722;2022-10-04T07:08:11;3.50;;;1.77;;
6852;SDS011;3465;42.144;24.722;2022-10-04T07:10:55;3.63;;;1.80;;
6852;SDS011;3465;42.144;24.722;2022-10-04T07:16:02;7.55;;;1.58;;
6852;SDS011;3465;42.144;24.722;2022-10-04T07:18:39;4.25;;;1.50;;
6852;SDS011;3465;42.144;24.722;2022-10-04T07:21:16;3.78;;;1.75;;
6852;SDS011;3465;42.144;24.722;2022-10-04T07:29:31;5.25;;;1.83;;
6852;SDS011;3465;42.144;24.722;2022-10-04T07:37:56;4.10;;;1.67;;
6852;SDS011;3465;42.144;24.722;2022-10-04T07:40:34;5.43;;;2.03;;
6852;SDS011;3465;42.144;24.722;2022-10-04T07:43:06;5.15;;;1.65;;
6852;SDS011;3465;42.144;24.722;2022-10-04T07:45:38;6.55;;;1.85;;
6852;SDS011;3465;42.144;24.722;2022-10-04T07:48:15;3.60;;;1.70;;
6852;SDS011;3465;42.144;24.722;2022-10-04T07:54:04;3.55;;;1.83;;
6852;SDS011;3465;42.144;24.722;2022-10-04T07:56:46;7.40;;;1.65;;
6852;SDS011;3465;42.144;24.722;2022-10-04T08:01:51;3.67;;;1.40;;
6852;SDS011;3465;42.144;24.722;2022-10-04T08:07:30;5.93;;;1.27;;
6852;SDS011;3465;42.144;24.722;2022-10-04T08:10:07;5.93;;;1.27;;
6852;SDS011;3465;42.144;24.722;2022-10-04T08:12:56;4.38;;;1.40;;
6852;SDS011;3465;42.144;24.722;2022-10-04T08:15:36;5.22;;;1.20;;
6852;SDS011;3465;42.144;24.722;2022-10-04T08:20:59;2.33;;;0.98;;
6852;SDS011;3465;42.144;24.722;2022-10-04T08:34:39;1.65;;;1.10;;
6852;SDS011;3465;42.144;24.722;2022-10-04T08:38:14;1.15;;;0.85;;
6852;SDS011;3465;42.144;24.722;2022-10-04T09:11:35;11.40;;;1.80;;
6852;SDS011;3465;42.144;24.722;2022-10-04T09:30:40;3.53;;;1.13;;
6852;SDS011;3465;42.144;24.722;2022-10-04T10:00:48;4.60;;;1.48;;
6852;SDS011;3465;42.144;24.722;2022-10-04T10:11:18;3.55;;;1.00;;
6852;SDS011;3465;42.144;24.722;2022-10-04T10:17:06;2.75;;;1.20;;
6852;SDS011;3465;42.144;24.722;2022-10-04T10:19:53;1.80;;;1.48;;
6852;SDS011;3465;42.144;24.722;2022-10-04T10:22:32;3.13;;;1.15;;
6852;SDS011;3465;42.144;24.722;2022-10-04T10:39:00;1.00;;;0.90;;
6852;SDS011;3465;42.144;24.722;2022-10-04T10:44:38;1.38;;;1.20;;
6852;SDS011;3465;42.144;24.722;2022-10-04T10:55:44;3.22;;;1.40;;
6852;SDS011;3465;42.144;24.722;2022-10-04T11:12:10;2.22;;;1.08;;
6852;SDS011;3465;42.144;24.722;2022-10-04T11:28:43;4.72;;;1.48;;
6852;SDS011;3465;42.144;24.722;2022-10-04T11:34:09;2.42;;;1.00;;
6852;SDS011;3465;42.144;24.722;2022-10-04T11:39:47;4.00;;;1.17;;
6852;SDS011;3465;42.144;24.722;2022-10-04T11:56:14;2.28;;;1.10;;
6852;SDS011;3465;42.144;24.722;2022-10-04T12:31:44;4.32;;;1.23;;
6852;SDS011;3465;42.144;24.722;2022-10-04T12:34:22;3.53;;;1.40;;
6852;SDS011;3465;42.144;24.722;2022-10-04T12:47:50;5.45;;;1.60;;
6852;SDS011;3465;42.144;24.722;2022-10-04T12:50:24;3.00;;;1.73;;
6852;SDS011;3465;42.144;24.722;2022-10-04T13:02:34;3.20;;;1.23;;
6852;SDS011;3465;42.144;24.722;2022-10-04T13:04:53;2.90;;;1.90;;
6852;SDS011;3465;42.144;24.722;2022-10-04T13:10:41;4.43;;;1.60;;
6852;SDS011;3465;42.144;24.722;2022-10-04T13:21:19;7.68;;;1.42;;
6852;SDS011;3465;42.144;24.722;2022-10-04T13:27:17;4.95;;;1.48;;
6852;SDS011;3465;42.144;24.722;2022-10-04T13:30:05;4.70;;;2.15;;
6852;SDS011;3465;42.144;24.722;2022-10-04T13:35:39;2.38;;;1.40;;
6852;SDS011;3465;42.144;24.722;2022-10-04T13:43:54;2.45;;;1.40;;
6852;SDS011;3465;42.144;24.722;2022-10-04T13:55:22;6.32;;;1.60;;
6852;SDS011;3465;42.144;24.722;2022-10-04T13:58:18;5.88;;;1.50;;
6852;SDS011;3465;42.144;24.722;2022-10-04T14:03:31;10.38;;;1.55;;
6852;SDS011;3465;42.144;24.722;2022-10-04T14:09:14;4.50;;;1.55;;
6852;SDS011;3465;42.144;24.722;2022-10-04T14:39:49;2.00;;;1.75;;
6852;SDS011;3465;42.144;24.722;2022-10-04T14:43:02;7.22;;;1.67;;
6852;SDS011;3465;42.144;24.722;2022-10-04T14:53:47;2.85;;;1.58;;
6852;SDS011;3465;42.144;24.722;2022-10-04T15:01:34;2.28;;;1.52;;
6852;SDS011;3465;42.144;24.722;2022-10-04T15:17:25;2.83;;;1.30;;
6852;SDS011;3465;42.144;24.722;2022-10-04T15:20:01;2.28;;;1.50;;
6852;SDS011;3465;42.144;24.722;2022-10-04T15:22:30;5.18;;;1.40;;
6852;SDS011;3465;42.144;24.722;2022-10-04T15:25:35;2.15;;;1.38;;
6852;SDS011;3465;42.144;24.722;2022-10-04T15:28:01;3.25;;;1.60;;
6852;SDS011;3465;42.144;24.722;2022-10-04T15:30:35;2.83;;;1.60;;
6852;SDS011;3465;42.144;24.722;2022-10-04T15:38:51;5.55;;;2.03;;
6852;SDS011;3465;42.144;24.722;2022-10-04T15:52:14;3.33;;;1.65;;
6852;SDS011;3465;42.144;24.722;2022-10-04T15:55:20;1.63;;;1.40;;
6852;SDS011;3465;42.144;24.722;2022-10-04T16:00:27;1.95;;;1.50;;
6852;SDS011;3465;42.144;24.722;2022-10-04T16:06:08;2.60;;;1.60;;
6852;SDS011;3465;42.144;24.722;2022-10-04T16:22:34;5.90;;;1.92;;
6852;SDS011;3465;42.144;24.722;2022-10-04T16:38:32;7.45;;;2.50;;
6852;SDS011;3465;42.144;24.722;2022-10-04T16:43:47;5.85;;;2.10;;
6852;SDS011;3465;42.144;24.722;2022-10-04T16:46:22;5.55;;;2.15;;
6852;SDS011;3465;42.144;24.722;2022-10-04T16:48:56;6.28;;;3.10;;
6852;SDS011;3465;42.144;24.722;2022-10-04T17:05:17;5.65;;;2.50;;
6852;SDS011;3465;42.144;24.722;2022-10-04T17:13:54;3.38;;;2.38;;
6852;SDS011;3465;42.144;24.722;2022-10-04T17:42:55;5.03;;;2.03;;
6852;SDS011;3465;42.144;24.722;2022-10-04T17:48:23;7.35;;;2.22;;
6852;SDS011;3465;42.144;24.722;2022-10-04T17:54:23;9.23;;;2.00;;
6852;SDS011;3465;42.144;24.722;2022-10-04T17:57:20;5.60;;;2.27;;
6852;SDS011;3465;42.144;24.722;2022-10-04T18:00:06;4.13;;;2.20;;
6852;SDS011;3465;42.144;24.722;2022-10-04T18:05:02;3.43;;;1.83;;
6852;SDS011;3465;42.144;24.722;2022-10-04T18:07:43;2.93;;;1.80;;
6852;SDS011;3465;42.144;24.722;2022-10-04T18:13:12;3.60;;;1.70;;
6852;SDS011;3465;42.144;24.722;2022-10-04T18:15:49;3.47;;;2.10;;
6852;SDS011;3465;42.144;24.722;2022-10-04T18:18:26;4.43;;;1.70;;
6852;SDS011;3465;42.144;24.722;2022-10-04T18:23:30;2.60;;;1.50;;
6852;SDS011;3465;42.144;24.722;2022-10-04T18:26:09;1.87;;;1.70;;
6852;SDS011;3465;42.144;24.722;2022-10-04T18:28:41;5.50;;;2.00;;
6852;SDS011;3465;42.144;24.722;2022-10-04T18:31:50;2.47;;;1.70;;
6852;SDS011;3465;42.144;24.722;2022-10-04T18:34:14;2.63;;;1.63;;
6852;SDS011;3465;42.144;24.722;2022-10-04T18:39:52;3.43;;;1.70;;
6852;SDS011;3465;42.144;24.722;2022-10-04T18:42:19;3.30;;;1.73;;
6852;SDS011;3465;42.144;24.722;2022-10-04T18:44:57;2.87;;;2.00;;
6852;SDS011;3465;42.144;24.722;2022-10-04T18:47:45;4.27;;;1.80;;
6852;SDS011;3465;42.144;24.722;2022-10-04T18:50:43;4.90;;;1.90;;
6852;SDS011;3465;42.144;24.722;2022-10-04T18:55:57;2.17;;;1.93;;
6852;SDS011;3465;42.144;24.722;2022-10-04T19:23:45;3.00;;;2.70;;
6852;SDS011;3465;42.144;24.722;2022-10-04T19:26:39;2.70;;;2.20;;
6852;SDS011;3465;42.144;24.722;2022-10-04T19:37:27;4.10;;;2.80;;
6852;SDS011;3465;42.144;24.722;2022-10-04T19:45:20;4.07;;;2.77;;
6852;SDS011;3465;42.144;24.722;2022-10-04T19:47:57;3.90;;;2.57;;
6852;SDS011;3465;42.144;24.722;2022-10-04T19:50:31;5.47;;;2.43;;
6852;SDS011;3465;42.144;24.722;2022-10-04T20:01:16;4.10;;;2.87;;
6852;SDS011;3465;42.144;24.722;2022-10-04T20:03:45;4.10;;;2.80;;
6852;SDS011;3465;42.144;24.722;2022-10-04T20:06:18;3.57;;;2.63;;
6852;SDS011;3465;42.144;24.722;2022-10-04T20:11:13;5.77;;;2.83;;
6852;SDS011;3465;42.144;24.722;2022-10-04T20:13:40;3.40;;;2.70;;
6852;SDS011;3465;42.144;24.722;2022-10-04T20:16:05;5.97;;;3.00;;
6852;SDS011;3465;42.144;24.722;2022-10-04T20:21:04;4.53;;;3.00;;
6852;SDS011;3465;42.144;24.722;2022-10-04T20:26:04;3.17;;;2.87;;
6852;SDS011;3465;42.144;24.722;2022-10-04T20:28:40;5.03;;;3.20;;
6852;SDS011;3465;42.144;24.722;2022-10-04T20:33:47;4.83;;;2.90;;
6852;SDS011;3465;42.144;24.722;2022-10-04T20:47:32;4.23;;;3.07;;
6852;SDS011;3465;42.144;24.722;2022-10-04T20:49:59;5.40;;;2.90;;
6852;SDS011;3465;42.144;24.722;2022-10-04T20:52:30;7.20;;;3.10;;
6852;SDS011;3465;42.144;24.722;2022-10-04T20:54:58;4.47;;;3.07;;
6852;SDS011;3465;42.144;24.722;2022-10-04T20:57:26;4.83;;;2.90;;
6852;SDS011;3465;42.144;24.722;2022-10-04T20:59:54;3.33;;;2.80;;
6852;SDS011;3465;42.144;24.722;2022-10-04T21:02:22;6.00;;;2.93;;
6852;SDS011;3465;42.144;24.722;2022-10-04T21:04:48;4.90;;;2.83;;
6852;SDS011;3465;42.144;24.722;2022-10-04T21:07:22;3.33;;;3.00;;
6852;SDS011;3465;42.144;24.722;2022-10-04T21:09:48;3.33;;;2.90;;
6852;SDS011;3465;42.144;24.722;2022-10-04T21:12:31;4.03;;;3.00;;
6852;SDS011;3465;42.144;24.722;2022-10-04T21:19:55;5.87;;;3.33;;
6852;SDS011;3465;42.144;24.722;2022-10-04T21:30:04;3.60;;;3.10;;
6852;SDS011;3465;42.144;24.722;2022-10-04T21:32:33;3.23;;;2.83;;
6852;SDS011;3465;42.144;24.722;2022-10-04T21:35:03;5.47;;;3.30;;
6852;SDS011;3465;42.144;24.722;2022-10-04T21:37:29;3.30;;;2.93;;
6852;SDS011;3465;42.144;24.722;2022-10-04T21:39:56;3.47;;;2.90;;
6852;SDS011;3465;42.144;24.722;2022-10-04T21:42:21;3.57;;;3.20;;
6852;SDS011;3465;42.144;24.722;2022-10-04T21:44:47;3.23;;;2.83;;
6852;SDS011;3465;42.144;24.722;2022-10-04T21:47:13;3.23;;;2.90;;
6852;SDS011;3465;42.144;24.722;2022-10-04T21:49:38;5.67;;;2.90;;
6852;SDS011;3465;42.144;24.722;2022-10-04T21:52:04;3.60;;;3.00;;
6852;SDS011;3465;42.144;24.722;2022-10-04T21:54:30;4.47;;;3.20;;
6852;SDS011;3465;42.144;24.722;2022-10-04T21:56:55;4.83;;;2.70;;
6852;SDS011;3465;42.144;24.722;2022-10-04T21:59:21;3.33;;;2.70;;
6852;SDS011;3465;42.144;24.722;2022-10-04T22:01:46;4.93;;;3.20;;
6852;SDS011;3465;42.144;24.722;2022-10-04T22:04:12;4.63;;;2.90;;
6852;SDS011;3465;42.144;24.722;2022-10-04T22:06:37;6.67;;;3.20;;
6852;SDS011;3465;42.144;24.722;2022-10-04T22:09:03;3.30;;;3.00;;
6852;SDS011;3465;42.144;24.722;2022-10-04T22:11:29;4.83;;;3.13;;
6852;SDS011;3465;42.144;24.722;2022-10-04T22:13:54;4.47;;;3.43;;
6852;SDS011;3465;42.144;24.722;2022-10-04T22:16:19;4.60;;;3.20;;
6852;SDS011;3465;42.144;24.722;2022-10-04T22:18:45;4.00;;;2.90;;
6852;SDS011;3465;42.144;24.722;2022-10-04T22:21:10;3.80;;;2.90;;
6852;SDS011;3465;42.144;24.722;2022-10-04T22:23:37;3.63;;;3.10;;
6852;SDS011;3465;42.144;24.722;2022-10-04T22:26:10;5.50;;;3.27;;
6852;SDS011;3465;42.144;24.722;2022-10-04T22:28:42;6.17;;;3.47;;
6852;SDS011;3465;42.144;24.722;2022-10-04T22:31:18;5.20;;;3.27;;
6852;SDS011;3465;42.144;24.722;2022-10-04T22:33:47;4.53;;;3.40;;
6852;SDS011;3465;42.144;24.722;2022-10-04T22:36:15;7.50;;;3.67;;
6852;SDS011;3465;42.144;24.722;2022-10-04T22:38:45;4.30;;;3.30;;
6852;SDS011;3465;42.144;24.722;2022-10-04T22:41:15;4.43;;;3.30;;
6852;SDS011;3465;42.144;24.722;2022-10-04T22:43:43;5.03;;;3.43;;
6852;SDS011;3465;42.144;24.722;2022-10-04T22:46:19;3.73;;;3.30;;
6852;SDS011;3465;42.144;24.722;2022-10-04T22:48:45;3.70;;;3.40;;
6852;SDS011;3465;42.144;24.722;2022-10-04T22:51:13;3.73;;;2.97;;
6852;SDS011;3465;42.144;24.722;2022-10-04T22:53:42;7.60;;;3.10;;
6852;SDS011;3465;42.144;24.722;2022-10-04T22:56:10;4.67;;;3.30;;
6852;SDS011;3465;42.144;24.722;2022-10-04T22:58:37;6.00;;;3.57;;
6852;SDS011;3465;42.144;24.722;2022-10-04T23:01:07;19.03;;;5.00;;
6852;SDS011;3465;42.144;24.722;2022-10-04T23:03:36;12.80;;;4.10;;
6852;SDS011;3465;42.144;24.722;2022-10-04T23:06:02;9.33;;;3.53;;
6852;SDS011;3465;42.144;24.722;2022-10-04T23:08:28;7.70;;;3.67;;
6852;SDS011;3465;42.144;24.722;2022-10-04T23:10:57;5.37;;;3.27;;
6852;SDS011;3465;42.144;24.722;2022-10-04T23:13:25;4.87;;;3.07;;
6852;SDS011;3465;42.144;24.722;2022-10-04T23:15:51;3.47;;;3.17;;
6852;SDS011;3465;42.144;24.722;2022-10-04T23:18:21;4.17;;;3.10;;
6852;SDS011;3465;42.144;24.722;2022-10-04T23:20:47;4.33;;;3.10;;
6852;SDS011;3465;42.144;24.722;2022-10-04T23:23:19;5.10;;;3.00;;
6852;SDS011;3465;42.144;24.722;2022-10-04T23:25:47;4.40;;;2.90;;
6852;SDS011;3465;42.144;24.722;2022-10-04T23:28:14;4.60;;;2.90;;
6852;SDS011;3465;42.144;24.722;2022-10-04T23:30:42;2.90;;;2.53;;
6852;SDS011;3465;42.144;24.722;2022-10-04T23:33:28;3.10;;;2.63;;
6852;SDS011;3465;42.144;24.722;2022-10-04T23:35:53;3.43;;;3.03;;
6852;SDS011;3465;42.144;24.722;2022-10-04T23:38:19;3.03;;;2.73;;
6852;SDS011;3465;42.144;24.722;2022-10-04T23:40:46;5.20;;;2.90;;
6852;SDS011;3465;42.144;24.722;2022-10-04T23:43:12;3.73;;;2.97;;
6852;SDS011;3465;42.144;24.722;2022-10-04T23:45:42;3.30;;;2.83;;
6852;SDS011;3465;42.144;24.722;2022-10-04T23:48:08;4.17;;;2.70;;
6852;SDS011;3465;42.144;24.722;2022-10-04T23:50:37;6.60;;;2.90;;
6852;SDS011;3465;42.144;24.722;2022-10-04T23:53:05;4.90;;;3.30;;
6852;SDS011;3465;42.144;24.722;2022-10-04T23:55:37;3.13;;;2.60;;
6852;SDS011;3465;42.144;24.722;2022-10-04T23:58:12;4.97;;;2.67;;
